sensor_id;sensor_type;location;lat;lon;timestamp;temperature;humidity
26909;DHT22;14477;51.038;4.588;2023-09-19T00:02:03;18.10;97.50
26909;DHT22;14477;51.038;4.588;2023-09-19T00:04:33;18.10;97.60
26909;DHT22;14477;51.038;4.588;2023-09-19T00:07:00;18.10;97.60
26909;DHT22;14477;51.038;4.588;2023-09-19T00:09:28;18.10;97.60
26909;DHT22;14477;51.038;4.588;2023-09-19T00:11:54;18.00;97.60
26909;DHT22;14477;51.038;4.588;2023-09-19T00:14:20;18.00;97.60
26909;DHT22;14477;51.038;4.588;2023-09-19T00:16:45;18.00;97.60
26909;DHT22;14477;51.038;4.588;2023-09-19T00:19:12;18.00;97.50
26909;DHT22;14477;51.038;4.588;2023-09-19T00:21:39;18.00;97.50
26909;DHT22;14477;51.038;4.588;2023-09-19T00:24:06;17.90;97.50
26909;DHT22;14477;51.038;4.588;2023-09-19T00:26:34;17.90;97.50
26909;DHT22;14477;51.038;4.588;2023-09-19T00:29:00;17.90;97.50
26909;DHT22;14477;51.038;4.588;2023-09-19T00:31:34;17.90;97.60
26909;DHT22;14477;51.038;4.588;2023-09-19T00:33:59;17.90;97.70
26909;DHT22;14477;51.038;4.588;2023-09-19T00:36:29;17.90;97.50
26909;DHT22;14477;51.038;4.588;2023-09-19T00:38:55;17.80;97.50
26909;DHT22;14477;51.038;4.588;2023-09-19T00:41:21;17.80;97.50
26909;DHT22;14477;51.038;4.588;2023-09-19T00:43:46;17.80;97.50
26909;DHT22;14477;51.038;4.588;2023-09-19T00:46:17;17.90;97.50
26909;DHT22;14477;51.038;4.588;2023-09-19T00:48:43;17.70;97.10
26909;DHT22;14477;51.038;4.588;2023-09-19T00:51:09;17.80;97.50
26909;DHT22;14477;51.038;4.588;2023-09-19T00:53:36;17.80;97.40
26909;DHT22;14477;51.038;4.588;2023-09-19T00:56:03;17.70;97.30
26909;DHT22;14477;51.038;4.588;2023-09-19T00:58:33;17.80;97.40
26909;DHT22;14477;51.038;4.588;2023-09-19T01:01:01;17.80;97.50
26909;DHT22;14477;51.038;4.588;2023-09-19T01:03:29;17.70;97.30
26909;DHT22;14477;51.038;4.588;2023-09-19T01:05:55;17.70;97.40
26909;DHT22;14477;51.038;4.588;2023-09-19T01:08:20;17.70;97.40
26909;DHT22;14477;51.038;4.588;2023-09-19T01:10:53;17.70;97.40
26909;DHT22;14477;51.038;4.588;2023-09-19T01:16:19;17.60;96.80
26909;DHT22;14477;51.038;4.588;2023-09-19T01:21:30;17.60;97.40
26909;DHT22;14477;51.038;4.588;2023-09-19T01:29:43;17.50;97.00
26909;DHT22;14477;51.038;4.588;2023-09-19T01:32:11;17.50;97.00
26909;DHT22;14477;51.038;4.588;2023-09-19T01:37:18;17.50;97.10
26909;DHT22;14477;51.038;4.588;2023-09-19T01:39:50;17.40;97.30
26909;DHT22;14477;51.038;4.588;2023-09-19T01:47:54;17.40;97.20
26909;DHT22;14477;51.038;4.588;2023-09-19T01:50:42;17.10;98.40
26909;DHT22;14477;51.038;4.588;2023-09-19T01:53:23;17.40;97.00
26909;DHT22;14477;51.038;4.588;2023-09-19T01:55:51;17.40;97.10
26909;DHT22;14477;51.038;4.588;2023-09-19T01:58:29;17.30;97.60
26909;DHT22;14477;51.038;4.588;2023-09-19T02:00:58;17.30;97.40
26909;DHT22;14477;51.038;4.588;2023-09-19T02:03:26;17.30;97.60
26909;DHT22;14477;51.038;4.588;2023-09-19T02:05:54;17.30;97.80
26909;DHT22;14477;51.038;4.588;2023-09-19T02:08:21;17.30;97.80
26909;DHT22;14477;51.038;4.588;2023-09-19T02:10:50;17.30;97.70
26909;DHT22;14477;51.038;4.588;2023-09-19T02:13:19;17.30;97.80
26909;DHT22;14477;51.038;4.588;2023-09-19T02:15:46;17.20;97.80
26909;DHT22;14477;51.038;4.588;2023-09-19T02:18:12;16.40;98.80
26909;DHT22;14477;51.038;4.588;2023-09-19T02:20:39;17.20;98.10
26909;DHT22;14477;51.038;4.588;2023-09-19T02:23:05;17.20;98.10
26909;DHT22;14477;51.038;4.588;2023-09-19T02:25:31;17.30;98.10
26909;DHT22;14477;51.038;4.588;2023-09-19T02:27:57;17.20;98.20
26909;DHT22;14477;51.038;4.588;2023-09-19T02:30:29;17.20;98.10
26909;DHT22;14477;51.038;4.588;2023-09-19T02:32:54;17.30;98.30
26909;DHT22;14477;51.038;4.588;2023-09-19T02:35:20;17.30;98.30
26909;DHT22;14477;51.038;4.588;2023-09-19T02:37:50;17.20;99.50
26909;DHT22;14477;51.038;4.588;2023-09-19T02:40:16;17.30;98.40
26909;DHT22;14477;51.038;4.588;2023-09-19T02:42:48;17.40;98.40
26909;DHT22;14477;51.038;4.588;2023-09-19T02:45:21;17.40;98.00
26909;DHT22;14477;51.038;4.588;2023-09-19T02:47:49;17.40;98.20
26909;DHT22;14477;51.038;4.588;2023-09-19T02:50:15;17.40;98.10
26909;DHT22;14477;51.038;4.588;2023-09-19T02:52:46;17.50;98.40
26909;DHT22;14477;51.038;4.588;2023-09-19T02:55:16;17.40;98.00
26909;DHT22;14477;51.038;4.588;2023-09-19T02:57:51;17.50;98.70
26909;DHT22;14477;51.038;4.588;2023-09-19T03:00:19;17.50;98.30
26909;DHT22;14477;51.038;4.588;2023-09-19T03:02:50;16.30;98.70
26909;DHT22;14477;51.038;4.588;2023-09-19T03:05:15;17.60;98.30
26909;DHT22;14477;51.038;4.588;2023-09-19T03:07:42;17.60;98.20
26909;DHT22;14477;51.038;4.588;2023-09-19T03:10:09;17.60;98.10
26909;DHT22;14477;51.038;4.588;2023-09-19T03:12:35;17.50;98.20
26909;DHT22;14477;51.038;4.588;2023-09-19T03:15:01;17.60;97.90
26909;DHT22;14477;51.038;4.588;2023-09-19T03:17:27;17.50;97.90
26909;DHT22;14477;51.038;4.588;2023-09-19T03:19:53;17.50;97.90
26909;DHT22;14477;51.038;4.588;2023-09-19T03:22:19;18.30;98.80
26909;DHT22;14477;51.038;4.588;2023-09-19T03:24:46;17.40;97.90
26909;DHT22;14477;51.038;4.588;2023-09-19T03:27:12;17.40;98.00
26909;DHT22;14477;51.038;4.588;2023-09-19T03:29:42;17.50;98.10
26909;DHT22;14477;51.038;4.588;2023-09-19T03:32:08;17.40;98.20
26909;DHT22;14477;51.038;4.588;2023-09-19T03:34:37;17.50;98.20
26909;DHT22;14477;51.038;4.588;2023-09-19T03:37:09;17.40;98.20
26909;DHT22;14477;51.038;4.588;2023-09-19T03:39:35;17.40;98.10
26909;DHT22;14477;51.038;4.588;2023-09-19T03:42:02;17.40;98.00
26909;DHT22;14477;51.038;4.588;2023-09-19T03:44:30;18.50;99.00
26909;DHT22;14477;51.038;4.588;2023-09-19T03:46:56;17.40;98.20
26909;DHT22;14477;51.038;4.588;2023-09-19T03:49:22;17.40;98.30
26909;DHT22;14477;51.038;4.588;2023-09-19T03:51:48;17.50;98.20
26909;DHT22;14477;51.038;4.588;2023-09-19T03:54:14;17.50;98.30
26909;DHT22;14477;51.038;4.588;2023-09-19T03:56:40;17.50;98.30
26909;DHT22;14477;51.038;4.588;2023-09-19T03:59:05;17.50;98.30
26909;DHT22;14477;51.038;4.588;2023-09-19T04:01:31;17.50;98.20
26909;DHT22;14477;51.038;4.588;2023-09-19T04:03:58;17.50;98.30
26909;DHT22;14477;51.038;4.588;2023-09-19T04:06:24;17.50;98.20
26909;DHT22;14477;51.038;4.588;2023-09-19T04:08:49;17.50;97.90
26909;DHT22;14477;51.038;4.588;2023-09-19T04:11:15;18.50;98.70
26909;DHT22;14477;51.038;4.588;2023-09-19T04:13:41;17.50;97.70
26909;DHT22;14477;51.038;4.588;2023-09-19T04:16:07;17.40;97.70
26909;DHT22;14477;51.038;4.588;2023-09-19T04:18:33;17.40;97.80
26909;DHT22;14477;51.038;4.588;2023-09-19T04:21:02;17.40;97.80
26909;DHT22;14477;51.038;4.588;2023-09-19T04:23:30;17.30;97.80
26909;DHT22;14477;51.038;4.588;2023-09-19T04:25:56;17.30;98.00
26909;DHT22;14477;51.038;4.588;2023-09-19T04:28:23;17.30;97.90
26909;DHT22;14477;51.038;4.588;2023-09-19T04:30:50;17.30;97.80
26909;DHT22;14477;51.038;4.588;2023-09-19T04:33:16;17.30;97.80
26909;DHT22;14477;51.038;4.588;2023-09-19T04:35:42;17.20;97.70
26909;DHT22;14477;51.038;4.588;2023-09-19T04:38:10;17.20;97.80
26909;DHT22;14477;51.038;4.588;2023-09-19T04:40:37;17.20;98.00
26909;DHT22;14477;51.038;4.588;2023-09-19T04:43:05;17.10;97.90
26909;DHT22;14477;51.038;4.588;2023-09-19T04:45:31;17.10;98.00
26909;DHT22;14477;51.038;4.588;2023-09-19T04:47:57;17.10;98.00
26909;DHT22;14477;51.038;4.588;2023-09-19T04:50:23;17.10;98.10
26909;DHT22;14477;51.038;4.588;2023-09-19T04:52:52;17.00;98.10
26909;DHT22;14477;51.038;4.588;2023-09-19T04:55:19;17.00;98.20
26909;DHT22;14477;51.038;4.588;2023-09-19T04:57:50;17.00;98.20
26909;DHT22;14477;51.038;4.588;2023-09-19T05:00:17;17.00;98.00
26909;DHT22;14477;51.038;4.588;2023-09-19T05:02:45;17.00;98.10
26909;DHT22;14477;51.038;4.588;2023-09-19T05:05:11;17.00;98.30
26909;DHT22;14477;51.038;4.588;2023-09-19T05:07:39;16.40;99.10
26909;DHT22;14477;51.038;4.588;2023-09-19T05:10:06;16.90;98.10
26909;DHT22;14477;51.038;4.588;2023-09-19T05:12:35;16.90;98.20
26909;DHT22;14477;51.038;4.588;2023-09-19T05:15:05;16.90;98.10
26909;DHT22;14477;51.038;4.588;2023-09-19T05:17:34;16.80;98.00
26909;DHT22;14477;51.038;4.588;2023-09-19T05:20:01;16.80;98.20
26909;DHT22;14477;51.038;4.588;2023-09-19T05:22:41;16.80;98.20
26909;DHT22;14477;51.038;4.588;2023-09-19T05:25:09;16.80;98.20
26909;DHT22;14477;51.038;4.588;2023-09-19T05:27:35;16.80;98.30
26909;DHT22;14477;51.038;4.588;2023-09-19T05:30:01;16.80;99.70
26909;DHT22;14477;51.038;4.588;2023-09-19T05:32:27;16.70;98.50
26909;DHT22;14477;51.038;4.588;2023-09-19T05:34:52;16.80;98.50
26909;DHT22;14477;51.038;4.588;2023-09-19T05:37:19;16.10;99.60
26909;DHT22;14477;51.038;4.588;2023-09-19T05:39:45;16.80;98.60
26909;DHT22;14477;51.038;4.588;2023-09-19T05:42:10;16.80;98.60
26909;DHT22;14477;51.038;4.588;2023-09-19T05:44:36;16.80;98.60
26909;DHT22;14477;51.038;4.588;2023-09-19T05:47:03;16.80;98.70
26909;DHT22;14477;51.038;4.588;2023-09-19T05:49:29;16.70;98.60
26909;DHT22;14477;51.038;4.588;2023-09-19T05:51:54;16.80;98.80
26909;DHT22;14477;51.038;4.588;2023-09-19T05:54:24;16.80;98.80
26909;DHT22;14477;51.038;4.588;2023-09-19T05:56:50;16.80;99.00
26909;DHT22;14477;51.038;4.588;2023-09-19T05:59:19;16.80;98.90
26909;DHT22;14477;51.038;4.588;2023-09-19T06:01:44;16.80;99.00
26909;DHT22;14477;51.038;4.588;2023-09-19T06:04:11;16.80;99.10
26909;DHT22;14477;51.038;4.588;2023-09-19T06:06:37;16.80;99.20
26909;DHT22;14477;51.038;4.588;2023-09-19T06:09:06;16.80;99.20
26909;DHT22;14477;51.038;4.588;2023-09-19T06:11:32;16.80;99.20
26909;DHT22;14477;51.038;4.588;2023-09-19T06:14:03;16.90;99.30
26909;DHT22;14477;51.038;4.588;2023-09-19T06:16:30;16.90;99.20
26909;DHT22;14477;51.038;4.588;2023-09-19T06:18:57;16.90;99.30
26909;DHT22;14477;51.038;4.588;2023-09-19T06:21:28;17.00;99.30
26909;DHT22;14477;51.038;4.588;2023-09-19T06:23:54;17.00;99.30
26909;DHT22;14477;51.038;4.588;2023-09-19T06:26:20;17.00;99.30
26909;DHT22;14477;51.038;4.588;2023-09-19T06:28:46;17.00;99.30
26909;DHT22;14477;51.038;4.588;2023-09-19T06:31:11;17.10;99.50
26909;DHT22;14477;51.038;4.588;2023-09-19T06:33:38;17.10;99.50
26909;DHT22;14477;51.038;4.588;2023-09-19T06:36:07;17.20;99.50
26909;DHT22;14477;51.038;4.588;2023-09-19T06:38:34;17.20;99.50
26909;DHT22;14477;51.038;4.588;2023-09-19T06:41:02;17.20;99.60
26909;DHT22;14477;51.038;4.588;2023-09-19T06:43:32;17.30;99.90
26909;DHT22;14477;51.038;4.588;2023-09-19T06:46:00;17.30;99.70
26909;DHT22;14477;51.038;4.588;2023-09-19T06:48:26;17.40;99.90
26909;DHT22;14477;51.038;4.588;2023-09-19T06:50:56;17.40;99.80
26909;DHT22;14477;51.038;4.588;2023-09-19T06:53:24;17.40;99.70
26909;DHT22;14477;51.038;4.588;2023-09-19T06:55:53;17.50;99.80
26909;DHT22;14477;51.038;4.588;2023-09-19T06:58:19;17.60;99.70
26909;DHT22;14477;51.038;4.588;2023-09-19T07:00:46;17.60;99.90
26909;DHT22;14477;51.038;4.588;2023-09-19T07:03:14;17.60;99.80
26909;DHT22;14477;51.038;4.588;2023-09-19T07:05:42;17.70;99.80
26909;DHT22;14477;51.038;4.588;2023-09-19T07:08:09;17.70;99.90
26909;DHT22;14477;51.038;4.588;2023-09-19T07:10:38;17.70;99.80
26909;DHT22;14477;51.038;4.588;2023-09-19T07:13:07;17.70;99.80
26909;DHT22;14477;51.038;4.588;2023-09-19T07:15:37;17.80;99.90
26909;DHT22;14477;51.038;4.588;2023-09-19T07:18:12;17.80;99.90
26909;DHT22;14477;51.038;4.588;2023-09-19T07:20:38;17.90;99.90
26909;DHT22;14477;51.038;4.588;2023-09-19T07:23:04;17.90;99.90
26909;DHT22;14477;51.038;4.588;2023-09-19T07:25:30;18.00;99.90
26909;DHT22;14477;51.038;4.588;2023-09-19T07:27:57;18.00;99.90
26909;DHT22;14477;51.038;4.588;2023-09-19T07:30:25;18.10;99.90
26909;DHT22;14477;51.038;4.588;2023-09-19T07:32:52;18.30;99.90
26909;DHT22;14477;51.038;4.588;2023-09-19T07:35:18;18.40;99.90
26909;DHT22;14477;51.038;4.588;2023-09-19T07:37:46;18.60;99.90
26909;DHT22;14477;51.038;4.588;2023-09-19T07:40:15;18.80;99.90
26909;DHT22;14477;51.038;4.588;2023-09-19T07:42:41;19.00;99.90
26909;DHT22;14477;51.038;4.588;2023-09-19T07:45:10;19.10;99.90
26909;DHT22;14477;51.038;4.588;2023-09-19T07:47:48;19.30;99.90
26909;DHT22;14477;51.038;4.588;2023-09-19T07:50:19;19.60;99.90
26909;DHT22;14477;51.038;4.588;2023-09-19T07:52:46;19.70;99.90
26909;DHT22;14477;51.038;4.588;2023-09-19T07:55:12;19.90;99.90
26909;DHT22;14477;51.038;4.588;2023-09-19T07:57:45;20.10;99.90
26909;DHT22;14477;51.038;4.588;2023-09-19T08:00:12;20.20;99.90
26909;DHT22;14477;51.038;4.588;2023-09-19T08:02:39;20.40;99.90
26909;DHT22;14477;51.038;4.588;2023-09-19T08:05:06;20.60;99.90
26909;DHT22;14477;51.038;4.588;2023-09-19T08:07:39;20.70;99.90
26909;DHT22;14477;51.038;4.588;2023-09-19T08:10:05;20.90;99.90
26909;DHT22;14477;51.038;4.588;2023-09-19T08:12:39;21.10;99.90
26909;DHT22;14477;51.038;4.588;2023-09-19T08:15:16;21.20;99.90
26909;DHT22;14477;51.038;4.588;2023-09-19T08:17:42;21.40;99.90
26909;DHT22;14477;51.038;4.588;2023-09-19T08:20:09;21.50;99.90
26909;DHT22;14477;51.038;4.588;2023-09-19T08:22:53;21.60;99.90
26909;DHT22;14477;51.038;4.588;2023-09-19T08:25:23;21.70;99.90
26909;DHT22;14477;51.038;4.588;2023-09-19T08:27:50;21.80;99.90
26909;DHT22;14477;51.038;4.588;2023-09-19T08:30:21;22.00;99.90
26909;DHT22;14477;51.038;4.588;2023-09-19T08:32:50;22.20;99.90
26909;DHT22;14477;51.038;4.588;2023-09-19T08:35:15;22.30;99.90
26909;DHT22;14477;51.038;4.588;2023-09-19T08:37:44;22.40;99.90
26909;DHT22;14477;51.038;4.588;2023-09-19T08:40:13;22.60;99.90
26909;DHT22;14477;51.038;4.588;2023-09-19T08:42:49;22.70;99.90
26909;DHT22;14477;51.038;4.588;2023-09-19T08:45:16;22.80;97.80
26909;DHT22;14477;51.038;4.588;2023-09-19T08:48:00;22.90;99.50
26909;DHT22;14477;51.038;4.588;2023-09-19T08:50:29;23.00;98.30
26909;DHT22;14477;51.038;4.588;2023-09-19T08:52:56;23.10;99.90
26909;DHT22;14477;51.038;4.588;2023-09-19T08:55:29;23.20;99.90
26909;DHT22;14477;51.038;4.588;2023-09-19T08:58:03;23.40;99.90
26909;DHT22;14477;51.038;4.588;2023-09-19T09:00:30;23.70;98.70
26909;DHT22;14477;51.038;4.588;2023-09-19T09:02:57;23.90;99.90
26909;DHT22;14477;51.038;4.588;2023-09-19T09:05:24;24.00;99.30
26909;DHT22;14477;51.038;4.588;2023-09-19T09:07:52;24.10;98.40
26909;DHT22;14477;51.038;4.588;2023-09-19T09:10:19;24.20;98.60
26909;DHT22;14477;51.038;4.588;2023-09-19T09:12:51;24.30;99.10
26909;DHT22;14477;51.038;4.588;2023-09-19T09:15:21;24.40;99.20
26909;DHT22;14477;51.038;4.588;2023-09-19T09:17:49;24.40;98.40
26909;DHT22;14477;51.038;4.588;2023-09-19T09:20:19;24.50;98.00
26909;DHT22;14477;51.038;4.588;2023-09-19T09:22:56;24.50;98.20
26909;DHT22;14477;51.038;4.588;2023-09-19T09:28:24;24.40;94.90
26909;DHT22;14477;51.038;4.588;2023-09-19T09:30:57;24.40;96.70
26909;DHT22;14477;51.038;4.588;2023-09-19T09:33:34;24.40;96.60
26909;DHT22;14477;51.038;4.588;2023-09-19T09:36:01;24.40;97.50
26909;DHT22;14477;51.038;4.588;2023-09-19T09:38:48;24.40;97.60
26909;DHT22;14477;51.038;4.588;2023-09-19T09:41:16;24.40;96.20
26909;DHT22;14477;51.038;4.588;2023-09-19T09:43:53;24.40;96.90
26909;DHT22;14477;51.038;4.588;2023-09-19T09:46:20;24.40;97.10
26909;DHT22;14477;51.038;4.588;2023-09-19T09:48:57;24.40;96.10
26909;DHT22;14477;51.038;4.588;2023-09-19T09:51:58;24.30;94.60
26909;DHT22;14477;51.038;4.588;2023-09-19T09:54:26;24.30;95.00
26909;DHT22;14477;51.038;4.588;2023-09-19T09:57:08;24.30;96.60
26909;DHT22;14477;51.038;4.588;2023-09-19T09:59:53;24.30;97.10
26909;DHT22;14477;51.038;4.588;2023-09-19T10:02:30;24.30;94.20
26909;DHT22;14477;51.038;4.588;2023-09-19T10:05:11;24.40;96.50
26909;DHT22;14477;51.038;4.588;2023-09-19T10:07:54;24.40;94.80
26909;DHT22;14477;51.038;4.588;2023-09-19T10:10:38;24.50;97.30
26909;DHT22;14477;51.038;4.588;2023-09-19T10:13:08;24.60;96.50
26909;DHT22;14477;51.038;4.588;2023-09-19T10:15:38;24.80;98.30
26909;DHT22;14477;51.038;4.588;2023-09-19T10:18:07;25.00;99.40
26909;DHT22;14477;51.038;4.588;2023-09-19T10:20:45;25.30;99.30
26909;DHT22;14477;51.038;4.588;2023-09-19T10:23:12;25.70;98.40
26909;DHT22;14477;51.038;4.588;2023-09-19T10:25:41;25.90;98.80
26909;DHT22;14477;51.038;4.588;2023-09-19T10:28:09;26.20;98.00
26909;DHT22;14477;51.038;4.588;2023-09-19T10:30:41;26.40;98.20
26909;DHT22;14477;51.038;4.588;2023-09-19T10:33:11;26.60;97.60
26909;DHT22;14477;51.038;4.588;2023-09-19T10:35:39;26.90;98.90
26909;DHT22;14477;51.038;4.588;2023-09-19T10:38:06;27.20;98.60
26909;DHT22;14477;51.038;4.588;2023-09-19T10:40:35;27.50;99.00
26909;DHT22;14477;51.038;4.588;2023-09-19T10:43:05;27.80;98.80
26909;DHT22;14477;51.038;4.588;2023-09-19T10:45:33;28.00;97.80
26909;DHT22;14477;51.038;4.588;2023-09-19T10:48:03;28.20;98.60
26909;DHT22;14477;51.038;4.588;2023-09-19T10:50:35;28.50;97.60
26909;DHT22;14477;51.038;4.588;2023-09-19T10:53:04;28.70;97.00
26909;DHT22;14477;51.038;4.588;2023-09-19T10:55:34;28.90;97.50
26909;DHT22;14477;51.038;4.588;2023-09-19T10:58:05;29.00;96.40
26909;DHT22;14477;51.038;4.588;2023-09-19T11:00:53;29.20;96.00
26909;DHT22;14477;51.038;4.588;2023-09-19T11:03:20;29.30;92.20
26909;DHT22;14477;51.038;4.588;2023-09-19T11:06:06;29.50;95.60
26909;DHT22;14477;51.038;4.588;2023-09-19T11:09:05;29.40;93.00
26909;DHT22;14477;51.038;4.588;2023-09-19T11:11:52;29.50;93.00
26909;DHT22;14477;51.038;4.588;2023-09-19T11:30:32;29.00;91.20
26909;DHT22;14477;51.038;4.588;2023-09-19T11:33:27;29.00;92.60
26909;DHT22;14477;51.038;4.588;2023-09-19T11:36:05;29.00;90.30
26909;DHT22;14477;51.038;4.588;2023-09-19T11:49:30;28.60;86.00
26909;DHT22;14477;51.038;4.588;2023-09-19T11:52:00;28.40;87.80
26909;DHT22;14477;51.038;4.588;2023-09-19T11:54:27;28.20;90.60
26909;DHT22;14477;51.038;4.588;2023-09-19T11:56:58;28.00;90.60
26909;DHT22;14477;51.038;4.588;2023-09-19T11:59:26;27.80;90.10
26909;DHT22;14477;51.038;4.588;2023-09-19T12:02:34;27.60;90.00
26909;DHT22;14477;51.038;4.588;2023-09-19T12:05:01;27.40;88.80
26909;DHT22;14477;51.038;4.588;2023-09-19T12:07:27;27.10;88.30
26909;DHT22;14477;51.038;4.588;2023-09-19T12:10:03;26.80;88.70
26909;DHT22;14477;51.038;4.588;2023-09-19T12:12:30;26.60;85.50
26909;DHT22;14477;51.038;4.588;2023-09-19T12:14:57;26.40;89.00
26909;DHT22;14477;51.038;4.588;2023-09-19T12:17:40;26.30;89.50
26909;DHT22;14477;51.038;4.588;2023-09-19T12:20:08;26.10;89.60
26909;DHT22;14477;51.038;4.588;2023-09-19T12:22:45;25.90;88.70
26909;DHT22;14477;51.038;4.588;2023-09-19T12:25:15;25.80;88.60
26909;DHT22;14477;51.038;4.588;2023-09-19T12:27:51;25.80;90.80
26909;DHT22;14477;51.038;4.588;2023-09-19T12:30:19;25.70;90.00
26909;DHT22;14477;51.038;4.588;2023-09-19T12:32:46;25.70;91.10
26909;DHT22;14477;51.038;4.588;2023-09-19T12:35:31;25.70;90.40
26909;DHT22;14477;51.038;4.588;2023-09-19T12:38:01;25.60;87.40
26909;DHT22;14477;51.038;4.588;2023-09-19T12:40:29;25.60;90.70
26909;DHT22;14477;51.038;4.588;2023-09-19T12:42:59;25.60;90.30
26909;DHT22;14477;51.038;4.588;2023-09-19T12:45:26;25.50;90.10
26909;DHT22;14477;51.038;4.588;2023-09-19T12:48:22;25.40;90.50
26909;DHT22;14477;51.038;4.588;2023-09-19T12:51:08;25.30;88.20
26909;DHT22;14477;51.038;4.588;2023-09-19T12:53:45;25.20;88.60
26909;DHT22;14477;51.038;4.588;2023-09-19T12:56:14;25.10;90.40
26909;DHT22;14477;51.038;4.588;2023-09-19T12:58:51;25.00;90.30
26909;DHT22;14477;51.038;4.588;2023-09-19T13:01:21;25.00;88.90
26909;DHT22;14477;51.038;4.588;2023-09-19T13:04:18;25.00;91.00
26909;DHT22;14477;51.038;4.588;2023-09-19T13:06:49;25.00;90.00
26909;DHT22;14477;51.038;4.588;2023-09-19T13:09:16;25.00;90.50
26909;DHT22;14477;51.038;4.588;2023-09-19T13:11:43;25.00;90.80
26909;DHT22;14477;51.038;4.588;2023-09-19T13:14:21;25.00;90.90
26909;DHT22;14477;51.038;4.588;2023-09-19T13:17:03;24.90;90.00
26909;DHT22;14477;51.038;4.588;2023-09-19T13:19:45;24.70;89.40
26909;DHT22;14477;51.038;4.588;2023-09-19T13:22:42;24.70;89.70
26909;DHT22;14477;51.038;4.588;2023-09-19T13:27:45;24.50;90.30
26909;DHT22;14477;51.038;4.588;2023-09-19T13:30:14;24.40;90.20
26909;DHT22;14477;51.038;4.588;2023-09-19T13:32:40;24.30;91.00
26909;DHT22;14477;51.038;4.588;2023-09-19T13:35:08;24.30;91.00
26909;DHT22;14477;51.038;4.588;2023-09-19T13:37:38;24.20;90.90
26909;DHT22;14477;51.038;4.588;2023-09-19T13:40:12;24.20;91.00
26909;DHT22;14477;51.038;4.588;2023-09-19T13:42:39;24.10;90.30
26909;DHT22;14477;51.038;4.588;2023-09-19T13:45:06;24.10;91.00
26909;DHT22;14477;51.038;4.588;2023-09-19T13:47:32;24.00;91.00
26909;DHT22;14477;51.038;4.588;2023-09-19T13:49:58;24.00;91.00
26909;DHT22;14477;51.038;4.588;2023-09-19T13:52:25;24.00;91.20
26909;DHT22;14477;51.038;4.588;2023-09-19T13:54:54;24.00;91.40
26909;DHT22;14477;51.038;4.588;2023-09-19T13:57:22;24.00;91.30
26909;DHT22;14477;51.038;4.588;2023-09-19T13:59:48;24.00;91.30
26909;DHT22;14477;51.038;4.588;2023-09-19T14:02:14;24.00;91.40
26909;DHT22;14477;51.038;4.588;2023-09-19T14:04:40;24.00;91.20
26909;DHT22;14477;51.038;4.588;2023-09-19T14:07:06;24.00;91.40
26909;DHT22;14477;51.038;4.588;2023-09-19T14:09:33;24.00;91.10
26909;DHT22;14477;51.038;4.588;2023-09-19T14:11:59;24.00;91.10
26909;DHT22;14477;51.038;4.588;2023-09-19T14:14:25;24.00;91.20
26909;DHT22;14477;51.038;4.588;2023-09-19T14:16:51;24.00;91.80
26909;DHT22;14477;51.038;4.588;2023-09-19T14:19:20;24.10;91.90
26909;DHT22;14477;51.038;4.588;2023-09-19T14:21:46;24.00;91.60
26909;DHT22;14477;51.038;4.588;2023-09-19T14:24:17;24.10;91.20
26909;DHT22;14477;51.038;4.588;2023-09-19T14:26:45;24.10;90.90
26909;DHT22;14477;51.038;4.588;2023-09-19T14:29:11;24.10;92.00
26909;DHT22;14477;51.038;4.588;2023-09-19T14:31:40;24.20;92.20
26909;DHT22;14477;51.038;4.588;2023-09-19T14:34:06;24.30;91.30
26909;DHT22;14477;51.038;4.588;2023-09-19T14:36:32;24.30;91.80
26909;DHT22;14477;51.038;4.588;2023-09-19T14:38:59;24.40;92.00
26909;DHT22;14477;51.038;4.588;2023-09-19T14:41:28;24.50;92.10
26909;DHT22;14477;51.038;4.588;2023-09-19T14:43:54;24.50;92.30
26909;DHT22;14477;51.038;4.588;2023-09-19T14:46:21;24.60;92.10
26909;DHT22;14477;51.038;4.588;2023-09-19T14:48:47;24.60;91.70
26909;DHT22;14477;51.038;4.588;2023-09-19T14:51:13;24.60;91.70
26909;DHT22;14477;51.038;4.588;2023-09-19T14:53:40;24.60;91.50
26909;DHT22;14477;51.038;4.588;2023-09-19T14:56:10;24.50;91.70
26909;DHT22;14477;51.038;4.588;2023-09-19T14:58:37;24.50;89.30
26909;DHT22;14477;51.038;4.588;2023-09-19T15:01:09;24.40;90.60
26909;DHT22;14477;51.038;4.588;2023-09-19T15:03:41;24.30;90.80
26909;DHT22;14477;51.038;4.588;2023-09-19T15:06:12;24.20;91.00
26909;DHT22;14477;51.038;4.588;2023-09-19T15:08:44;24.10;91.00
26909;DHT22;14477;51.038;4.588;2023-09-19T15:11:14;24.00;90.80
26909;DHT22;14477;51.038;4.588;2023-09-19T15:13:43;24.00;91.20
26909;DHT22;14477;51.038;4.588;2023-09-19T15:16:09;23.80;91.00
26909;DHT22;14477;51.038;4.588;2023-09-19T15:18:43;23.80;91.10
26909;DHT22;14477;51.038;4.588;2023-09-19T15:21:11;23.70;90.30
26909;DHT22;14477;51.038;4.588;2023-09-19T15:23:38;23.70;91.00
26909;DHT22;14477;51.038;4.588;2023-09-19T15:26:06;23.60;91.30
26909;DHT22;14477;51.038;4.588;2023-09-19T15:28:32;23.50;91.10
26909;DHT22;14477;51.038;4.588;2023-09-19T15:31:07;23.50;91.40
26909;DHT22;14477;51.038;4.588;2023-09-19T15:33:33;23.40;91.00
26909;DHT22;14477;51.038;4.588;2023-09-19T15:38:32;23.40;91.30
26909;DHT22;14477;51.038;4.588;2023-09-19T15:41:21;23.30;91.70
26909;DHT22;14477;51.038;4.588;2023-09-19T15:43:47;23.20;91.50
26909;DHT22;14477;51.038;4.588;2023-09-19T15:46:13;23.20;91.60
26909;DHT22;14477;51.038;4.588;2023-09-19T15:48:40;23.20;91.70
26909;DHT22;14477;51.038;4.588;2023-09-19T15:51:06;23.10;91.60
26909;DHT22;14477;51.038;4.588;2023-09-19T15:53:50;23.10;91.90
26909;DHT22;14477;51.038;4.588;2023-09-19T15:56:17;23.00;90.60
26909;DHT22;14477;51.038;4.588;2023-09-19T15:58:47;22.80;91.70
26909;DHT22;14477;51.038;4.588;2023-09-19T16:01:14;22.90;91.40
26909;DHT22;14477;51.038;4.588;2023-09-19T16:03:46;22.90;91.50
26909;DHT22;14477;51.038;4.588;2023-09-19T16:06:20;22.80;91.70
26909;DHT22;14477;51.038;4.588;2023-09-19T16:08:50;22.80;90.90
26909;DHT22;14477;51.038;4.588;2023-09-19T16:11:17;22.70;91.40
26909;DHT22;14477;51.038;4.588;2023-09-19T16:13:43;22.70;91.60
26909;DHT22;14477;51.038;4.588;2023-09-19T16:16:12;22.70;91.80
26909;DHT22;14477;51.038;4.588;2023-09-19T16:18:39;22.60;91.70
26909;DHT22;14477;51.038;4.588;2023-09-19T16:21:06;22.60;91.90
26909;DHT22;14477;51.038;4.588;2023-09-19T16:23:36;22.60;92.00
26909;DHT22;14477;51.038;4.588;2023-09-19T16:26:07;22.60;92.20
26909;DHT22;14477;51.038;4.588;2023-09-19T16:28:35;22.60;91.70
26909;DHT22;14477;51.038;4.588;2023-09-19T16:31:03;22.60;92.00
26909;DHT22;14477;51.038;4.588;2023-09-19T16:33:31;22.50;92.20
26909;DHT22;14477;51.038;4.588;2023-09-19T16:35:57;22.50;92.10
26909;DHT22;14477;51.038;4.588;2023-09-19T16:38:25;22.50;92.30
26909;DHT22;14477;51.038;4.588;2023-09-19T16:40:57;22.50;92.30